createdAt,value
2019-04-06T00:01:40.921Z,25.23
2019-04-06T00:04:07.569Z,24.90
2019-04-06T00:06:34.109Z,25.80
2019-04-06T00:09:00.650Z,27.63
2019-04-06T00:11:27.198Z,26.47
2019-04-06T00:13:53.800Z,25.77
2019-04-06T00:16:20.350Z,25.63
2019-04-06T00:18:46.887Z,25.73
2019-04-06T00:21:13.618Z,25.43
2019-04-06T00:23:40.323Z,22.93
2019-04-06T00:26:06.902Z,27.47
2019-04-06T00:28:33.492Z,26.07
2019-04-06T00:31:02.102Z,25.87
2019-04-06T00:33:30.227Z,28.83
2019-04-06T00:35:56.750Z,44.63
2019-04-06T00:38:23.292Z,36.20
2019-04-06T00:40:49.842Z,29.80
2019-04-06T00:43:17.384Z,31.23
2019-04-06T00:45:43.965Z,27.33
2019-04-06T00:48:11.250Z,26.37
2019-04-06T00:50:37.858Z,27.97
2019-04-06T00:53:04.443Z,26.60
2019-04-06T00:55:31.107Z,23.80
2019-04-06T00:57:58.411Z,24.40
2019-04-06T01:00:25.506Z,24.40
2019-04-06T01:02:52.035Z,24.27
2019-04-06T01:05:19.017Z,22.67
2019-04-06T01:07:45.767Z,23.40
2019-04-06T01:10:12.550Z,22.57
2019-04-06T01:12:39.049Z,21.97
2019-04-06T01:15:06.723Z,21.47
2019-04-06T01:17:33.219Z,23.10
2019-04-06T01:19:59.785Z,22.60
2019-04-06T01:22:26.396Z,23.63
2019-04-06T01:24:53.298Z,24.83
2019-04-06T01:27:19.840Z,22.33
2019-04-06T01:29:46.384Z,23.60
2019-04-06T01:32:12.989Z,24.47
2019-04-06T01:34:39.601Z,23.57
2019-04-06T01:37:06.250Z,21.50
2019-04-06T01:39:32.842Z,23.17
2019-04-06T01:41:59.440Z,21.90
2019-04-06T01:44:26.050Z,22.60
2019-04-06T01:46:52.654Z,22.70
2019-04-06T01:49:19.301Z,20.97
2019-04-06T01:51:45.813Z,22.97
2019-04-06T01:54:13.375Z,22.63
2019-04-06T01:56:39.957Z,21.73
2019-04-06T01:59:06.464Z,23.40
2019-04-06T02:01:37.548Z,22.37
2019-04-06T02:04:04.065Z,21.60
2019-04-06T02:06:30.728Z,22.53
2019-04-06T02:08:57.207Z,21.70
2019-04-06T02:11:23.807Z,22.50
2019-04-06T02:13:50.405Z,21.50
2019-04-06T02:16:16.999Z,21.97
2019-04-06T02:18:43.497Z,22.37
2019-04-06T02:21:10.093Z,23.07
2019-04-06T02:23:36.636Z,21.77
2019-04-06T02:26:03.300Z,23.47
2019-04-06T02:28:29.939Z,22.10
2019-04-06T02:31:07.811Z,21.03
2019-04-06T02:33:41.868Z,21.23
2019-04-06T02:36:10.453Z,21.03
2019-04-06T02:38:53.890Z,21.70
2019-04-06T02:41:39.719Z,21.73
2019-04-06T02:44:06.330Z,22.17
2019-04-06T02:46:33.078Z,21.73
2019-04-06T02:48:59.721Z,20.93
2019-04-06T02:51:26.281Z,20.90
2019-04-06T02:53:52.978Z,19.70
2019-04-06T02:56:19.573Z,20.27
2019-04-06T02:58:46.110Z,20.30
2019-04-06T03:01:12.660Z,19.90
2019-04-06T03:03:40.211Z,19.20
2019-04-06T03:06:06.759Z,20.33
2019-04-06T03:08:33.310Z,20.53
2019-04-06T03:10:59.950Z,21.10
2019-04-06T03:13:27.499Z,21.03
2019-04-06T03:15:54.245Z,21.17
2019-04-06T03:18:20.798Z,19.60
2019-04-06T03:20:47.351Z,19.20
2019-04-06T03:23:14.048Z,19.90
2019-04-06T03:25:40.605Z,19.47
2019-04-06T03:28:07.416Z,20.30
2019-04-06T03:30:33.983Z,20.90
2019-04-06T03:33:00.597Z,22.60
2019-04-06T03:35:27.521Z,23.53
2019-04-06T03:37:54.264Z,22.97
2019-04-06T03:40:21.123Z,21.97
2019-04-06T03:42:47.928Z,22.10
2019-04-06T03:45:14.598Z,20.60
2019-04-06T03:47:41.277Z,22.47
2019-04-06T03:50:08.697Z,20.93
2019-04-06T03:52:35.297Z,21.43
2019-04-06T03:55:01.913Z,20.23
2019-04-06T03:57:28.650Z,21.17
2019-04-06T03:59:55.629Z,19.20
2019-04-06T04:02:22.451Z,20.70
2019-04-06T04:04:48.964Z,21.23
2019-04-06T04:07:15.741Z,19.63
2019-04-06T04:09:44.177Z,20.23
2019-04-06T04:12:10.798Z,20.87
2019-04-06T04:14:37.386Z,21.33
2019-04-06T04:17:04.003Z,20.03
2019-04-06T04:19:30.661Z,20.60
2019-04-06T04:21:57.455Z,21.50
2019-04-06T04:24:24.034Z,22.83
2019-04-06T04:26:50.749Z,23.43
2019-04-06T04:29:17.451Z,23.00
2019-04-06T04:31:43.976Z,20.73
2019-04-06T04:34:10.547Z,21.63
2019-04-06T04:36:37.046Z,21.90
2019-04-06T04:39:05.925Z,22.33
2019-04-06T04:41:32.555Z,21.30
2019-04-06T04:43:59.125Z,21.27
2019-04-06T04:46:25.622Z,22.73
2019-04-06T04:48:52.367Z,21.93
2019-04-06T04:51:18.983Z,20.97
2019-04-06T04:53:45.653Z,21.53
2019-04-06T04:56:12.164Z,20.30
2019-04-06T04:58:38.900Z,20.40
2019-04-06T05:01:05.456Z,21.50
2019-04-06T05:03:32.118Z,22.30
2019-04-06T05:05:58.632Z,21.87
2019-04-06T05:08:25.328Z,21.17
2019-04-06T05:10:51.991Z,22.07
2019-04-06T05:13:18.717Z,21.80
2019-04-06T05:16:07.965Z,22.23
2019-04-06T05:18:35.888Z,21.60
2019-04-06T05:21:02.574Z,21.27
2019-04-06T05:23:29.152Z,22.53
2019-04-06T05:25:55.704Z,20.73
2019-04-06T05:28:23.345Z,19.73
2019-04-06T05:30:50.132Z,21.90
2019-04-06T05:33:16.754Z,20.70
2019-04-06T05:35:43.339Z,20.30
2019-04-06T05:38:09.997Z,20.17
2019-04-06T05:40:36.563Z,20.20
2019-04-06T05:43:03.137Z,21.07
2019-04-06T05:45:30.676Z,20.50
2019-04-06T05:47:57.220Z,19.63
2019-04-06T05:50:23.745Z,18.63
2019-04-06T05:52:50.299Z,18.67
2019-04-06T05:55:16.848Z,19.17
2019-04-06T05:57:43.492Z,17.67
2019-04-06T06:00:11.471Z,18.83
2019-04-06T06:02:41.293Z,18.37
2019-04-06T06:05:08.563Z,18.10
2019-04-06T06:07:35.368Z,18.80
2019-04-06T06:10:03.278Z,19.13
2019-04-06T06:12:29.774Z,17.77
2019-04-06T06:14:56.386Z,18.43
2019-04-06T06:17:22.887Z,17.10
2019-04-06T06:19:49.501Z,18.27
2019-04-06T06:22:16.075Z,17.53
2019-04-06T06:24:42.746Z,17.47
2019-04-06T06:27:09.383Z,19.47
2019-04-06T06:29:36.171Z,17.10
2019-04-06T06:32:03.367Z,18.40
2019-04-06T06:34:29.855Z,18.07
2019-04-06T06:36:56.587Z,17.60
2019-04-06T06:39:23.158Z,17.07
2019-04-06T06:41:49.787Z,16.73
2019-04-06T06:44:16.350Z,18.10
2019-04-06T06:46:42.951Z,16.90
2019-04-06T06:49:09.455Z,17.27
2019-04-06T06:51:36.219Z,17.53
2019-04-06T06:54:02.876Z,18.10
2019-04-06T06:56:30.472Z,17.70
2019-04-06T06:58:57.203Z,17.30
2019-04-06T07:01:23.856Z,16.83
2019-04-06T07:03:50.505Z,16.90
2019-04-06T07:06:17.154Z,17.10
2019-04-06T07:08:43.790Z,16.80
2019-04-06T07:11:10.342Z,16.93
2019-04-06T07:13:36.896Z,17.43
2019-04-06T07:16:03.557Z,15.97
2019-04-06T07:18:30.148Z,17.60
2019-04-06T07:20:56.837Z,17.23
2019-04-06T07:23:23.509Z,15.77
2019-04-06T07:25:57.447Z,16.57
2019-04-06T07:28:18.638Z,16.80
2019-04-06T07:30:45.254Z,17.03
2019-04-06T07:33:12.168Z,16.70
2019-04-06T07:35:38.895Z,17.23
2019-04-06T07:38:05.573Z,16.67
2019-04-06T07:40:32.112Z,16.57
2019-04-06T07:42:58.796Z,15.70
2019-04-06T07:45:25.366Z,15.90
2019-04-06T07:47:51.982Z,16.47
2019-04-06T07:50:18.991Z,14.33
2019-04-06T07:52:45.575Z,16.03
2019-04-06T07:55:12.227Z,16.32
2019-04-06T07:57:38.880Z,20.00
2019-04-06T08:00:06.844Z,15.15
2019-04-06T08:02:33.505Z,15.85
2019-04-06T08:05:00.353Z,15.68
2019-04-06T08:07:26.986Z,15.15
2019-04-06T08:09:54.523Z,14.83
2019-04-06T08:12:21.212Z,14.65
2019-04-06T08:14:48.170Z,16.02
2019-04-06T08:17:14.765Z,14.50
2019-04-06T08:19:41.310Z,15.38
2019-04-06T08:22:07.848Z,14.38
2019-04-06T08:24:34.396Z,14.55
2019-04-06T08:27:01.045Z,14.93
2019-04-06T08:29:28.585Z,14.43
2019-04-06T08:31:55.150Z,13.13
2019-04-06T08:34:21.852Z,12.73
2019-04-06T08:36:48.919Z,12.95
2019-04-06T08:39:15.516Z,13.33
2019-04-06T08:41:42.129Z,12.93
2019-04-06T08:44:08.701Z,12.70
2019-04-06T08:46:35.336Z,12.30
2019-04-06T08:49:01.884Z,12.85
2019-04-06T08:51:30.074Z,12.55
2019-04-06T08:53:57.645Z,13.25
2019-04-06T08:56:24.613Z,13.32
2019-04-06T08:58:52.205Z,12.65
2019-04-06T09:01:18.840Z,12.82
2019-04-06T09:03:45.423Z,12.28
2019-04-06T09:06:11.992Z,12.65
2019-04-06T09:08:38.624Z,12.85
2019-04-06T09:11:05.145Z,12.03
2019-04-06T09:13:31.806Z,12.33
2019-04-06T09:15:58.375Z,11.97
2019-04-06T09:18:28.356Z,11.80
2019-04-06T09:20:54.111Z,11.55
2019-04-06T09:23:20.711Z,12.45
2019-04-06T09:25:47.330Z,11.78
2019-04-06T09:28:14.017Z,13.78
2019-04-06T09:30:40.643Z,11.93
2019-04-06T09:33:08.222Z,11.95
2019-04-06T09:35:34.823Z,12.03
2019-04-06T09:38:01.454Z,11.55
2019-04-06T09:40:28.402Z,11.78
2019-04-06T09:42:55.538Z,11.78
2019-04-06T09:45:29.896Z,10.80
2019-04-06T09:48:04.346Z,10.53
2019-04-06T09:50:49.328Z,10.90
2019-04-06T09:53:26.800Z,10.93
2019-04-06T09:55:58.221Z,11.22
2019-04-06T09:58:26.782Z,13.38
2019-04-06T10:00:58.254Z,11.57
2019-04-06T10:03:32.478Z,10.48
2019-04-06T10:06:17.448Z,11.10
2019-04-06T10:08:54.798Z,9.70
2019-04-06T10:11:23.576Z,10.38
2019-04-06T10:13:58.055Z,10.00
2019-04-06T10:16:43.127Z,11.33
2019-04-06T10:19:11.687Z,11.07
2019-04-06T10:21:42.849Z,11.20
2019-04-06T10:24:23.066Z,10.38
2019-04-06T10:26:57.217Z,10.50
2019-04-06T10:29:25.707Z,8.93
2019-04-06T10:31:56.973Z,10.13
2019-04-06T10:34:25.606Z,9.28
2019-04-06T10:37:02.993Z,9.60
2019-04-06T10:39:34.512Z,9.35
2019-04-06T10:42:02.957Z,9.00
2019-04-06T10:44:47.949Z,8.80
2019-04-06T10:47:16.747Z,9.83
2019-04-06T10:49:57.311Z,9.83
2019-04-06T10:52:25.898Z,9.65
2019-04-06T10:54:54.578Z,9.55
2019-04-06T10:57:41.977Z,9.63
2019-04-06T11:00:25.387Z,10.18
2019-04-06T11:02:53.832Z,10.05
2019-04-06T11:05:40.256Z,9.58
2019-04-06T11:08:09.346Z,8.85
2019-04-06T11:10:40.706Z,9.30
2019-04-06T11:13:09.566Z,9.50
2019-04-06T11:15:41.089Z,9.90
2019-04-06T11:18:14.713Z,10.32
2019-04-06T11:20:59.721Z,10.05
2019-04-06T11:23:37.244Z,9.73
2019-04-06T11:26:17.931Z,9.60
2019-04-06T11:29:02.709Z,9.78
2019-04-06T11:31:48.030Z,9.00
2019-04-06T11:34:33.365Z,9.08
2019-04-06T11:37:20.057Z,10.18
2019-04-06T11:40:03.517Z,9.98
2019-04-06T11:42:37.817Z,9.93
2019-04-06T11:45:11.617Z,9.83
2019-04-06T11:47:56.661Z,9.40
2019-04-06T11:50:25.066Z,8.70
2019-04-06T11:53:02.555Z,9.83
2019-04-06T11:55:35.717Z,8.67
2019-04-06T11:58:10.130Z,10.43
2019-04-06T12:00:50.429Z,9.13
2019-04-06T12:03:28.044Z,10.40
2019-04-06T12:06:12.958Z,10.45
2019-04-06T12:08:54.776Z,9.28
2019-04-06T12:11:28.845Z,9.58
2019-04-06T12:14:06.480Z,8.83
2019-04-06T12:16:49.713Z,9.28
2019-04-06T12:19:35.896Z,9.73
2019-04-06T12:22:07.370Z,9.87
2019-04-06T12:24:47.744Z,9.40
2019-04-06T12:27:16.602Z,10.60
2019-04-06T12:29:57.078Z,10.30
2019-04-06T12:32:40.449Z,10.33
2019-04-06T12:35:17.679Z,10.63
2019-04-06T12:37:46.201Z,10.63
2019-04-06T12:40:24.152Z,10.03
2019-04-06T12:43:01.264Z,11.33
2019-04-06T12:45:41.967Z,11.00
2019-04-06T12:48:16.297Z,10.87
2019-04-06T12:50:56.500Z,11.73
2019-04-06T12:53:41.182Z,12.80
2019-04-06T12:56:09.728Z,10.67
2019-04-06T12:58:47.371Z,10.60
2019-04-06T13:01:24.967Z,10.63
2019-04-06T13:04:08.451Z,11.27
2019-04-06T13:06:53.282Z,10.93
2019-04-06T13:09:38.707Z,10.77
2019-04-06T13:12:10.154Z,11.63
2019-04-06T13:14:55.050Z,10.37
2019-04-06T13:17:40.246Z,12.13
2019-04-06T13:20:15.108Z,11.40
2019-04-06T13:22:43.819Z,11.60
2019-04-06T13:25:28.584Z,11.37
2019-04-06T13:28:08.737Z,14.17
2019-04-06T13:30:43.052Z,11.80
2019-04-06T13:33:29.054Z,10.97
2019-04-06T13:35:57.636Z,11.90
2019-04-06T13:38:41.275Z,11.63
2019-04-06T13:41:26.818Z,12.10
2019-04-06T13:43:57.925Z,12.20
2019-04-06T13:46:41.771Z,11.23
2019-04-06T13:49:10.536Z,11.50
2019-04-06T13:51:48.516Z,11.23
2019-04-06T13:54:23.070Z,11.87
2019-04-06T13:56:54.089Z,11.73
2019-04-06T13:59:25.607Z,11.57
2019-04-06T14:01:57.003Z,11.17
2019-04-06T14:04:28.328Z,13.00
2019-04-06T14:07:13.333Z,11.60
2019-04-06T14:09:53.865Z,11.63
2019-04-06T14:12:25.080Z,11.57
2019-04-06T14:15:02.528Z,10.87
2019-04-06T14:17:42.853Z,11.80
2019-04-06T14:20:22.921Z,11.90
2019-04-06T14:23:08.029Z,12.67
2019-04-06T14:25:36.705Z,11.80
2019-04-06T14:28:09.762Z,12.57
2019-04-06T14:30:54.884Z,11.43
2019-04-06T14:33:32.460Z,11.77
2019-04-06T14:36:01.284Z,12.20
2019-04-06T14:38:47.794Z,11.20
2019-04-06T14:41:22.595Z,11.37
2019-04-06T14:43:51.284Z,11.83
2019-04-06T14:46:25.694Z,12.17
2019-04-06T14:48:57.091Z,11.83
2019-04-06T14:51:37.340Z,13.13
2019-04-06T14:54:18.083Z,13.10
2019-04-06T14:56:46.603Z,11.70
2019-04-06T14:59:18.099Z,11.87
2019-04-06T15:01:56.790Z,11.80
2019-04-06T15:04:22.718Z,10.90
2019-04-06T15:07:09.547Z,11.13
2019-04-06T15:09:33.326Z,11.27
2019-04-06T15:12:16.805Z,11.20
2019-04-06T15:14:48.073Z,11.23
2019-04-06T15:17:19.349Z,11.37
2019-04-06T15:19:47.936Z,10.83
2019-04-06T15:22:16.436Z,20.17
2019-04-06T15:24:47.789Z,12.23
2019-04-06T15:27:16.183Z,11.83
2019-04-06T15:29:53.450Z,11.87
2019-04-06T15:32:22.066Z,12.37
2019-04-06T15:34:59.523Z,11.03
2019-04-06T15:37:28.084Z,13.70
2019-04-06T15:40:13.620Z,10.93
2019-04-06T15:42:44.976Z,11.10
2019-04-06T15:45:31.685Z,10.93
2019-04-06T15:48:08.791Z,11.60
2019-04-06T15:50:37.323Z,13.07
2019-04-06T15:53:21.961Z,11.27
2019-04-06T15:55:53.271Z,10.63
2019-04-06T15:58:21.727Z,10.93
2019-04-06T16:00:59.638Z,12.87
2019-04-06T16:03:33.904Z,15.50
2019-04-06T16:06:02.351Z,11.43
2019-04-06T16:08:42.485Z,11.70
2019-04-06T16:11:10.929Z,11.40
2019-04-06T16:13:55.867Z,11.63
2019-04-06T16:16:24.300Z,11.23
2019-04-06T16:18:52.744Z,11.67
2019-04-06T16:21:27.100Z,11.73
2019-04-06T16:24:04.006Z,11.90
2019-04-06T16:26:34.550Z,12.13
2019-04-06T16:29:03.366Z,11.17
2019-04-06T16:31:34.508Z,11.27
2019-04-06T16:34:06.196Z,11.90
2019-04-06T16:36:43.922Z,14.90
2019-04-06T16:39:30.501Z,12.50
2019-04-06T16:42:15.440Z,11.57
2019-04-06T16:44:46.916Z,11.67
2019-04-06T16:47:24.308Z,12.07
2019-04-06T16:50:02.051Z,11.47
2019-04-06T16:52:47.087Z,11.77
2019-04-06T16:55:24.681Z,12.83
2019-04-06T16:58:00.455Z,12.50
2019-04-06T17:00:31.833Z,12.63
2019-04-06T17:03:00.824Z,11.73
2019-04-06T17:05:46.154Z,12.10
2019-04-06T17:08:14.667Z,11.93
2019-04-06T17:10:59.267Z,12.90
2019-04-06T17:13:46.474Z,12.57
2019-04-06T17:16:15.082Z,12.33
2019-04-06T17:18:43.602Z,12.97
2019-04-06T17:21:13.046Z,12.37
2019-04-06T17:23:42.583Z,13.37
2019-04-06T17:26:16.624Z,13.20
2019-04-06T17:29:01.531Z,12.87
2019-04-06T17:31:35.772Z,13.83
2019-04-06T17:34:06.978Z,15.07
2019-04-06T17:36:46.518Z,14.77
2019-04-06T17:39:33.464Z,14.93
2019-04-06T17:42:17.002Z,14.03
2019-04-06T17:44:48.357Z,14.33
2019-04-06T17:47:23.050Z,16.73
2019-04-06T17:50:08.497Z,19.17
2019-04-06T17:52:53.352Z,14.63
2019-04-06T17:55:22.106Z,15.57
2019-04-06T17:58:07.796Z,15.27
2019-04-06T18:00:39.478Z,15.33
2019-04-06T18:03:08.095Z,17.70
2019-04-06T18:05:36.654Z,25.63
2019-04-06T18:08:23.511Z,22.53
2019-04-06T18:10:58.272Z,22.57
2019-04-06T18:13:35.686Z,27.27
2019-04-06T18:16:02.308Z,26.40
2019-04-06T18:18:29.153Z,30.57
2019-04-06T18:20:56.712Z,34.27
2019-04-06T18:23:23.401Z,38.57
2019-04-06T18:25:49.896Z,40.57
2019-04-06T18:28:16.481Z,42.13
2019-04-06T18:30:45.108Z,45.57
2019-04-06T18:33:16.416Z,56.10
2019-04-06T18:35:42.920Z,51.17
2019-04-06T18:38:20.328Z,51.40
2019-04-06T18:40:47.069Z,46.50
2019-04-06T18:43:14.223Z,46.70
2019-04-06T18:45:41.381Z,39.20
2019-04-06T18:48:08.200Z,34.60
2019-04-06T18:50:38.308Z,27.73
2019-04-06T18:53:03.441Z,23.87
2019-04-06T18:55:30.023Z,21.50
2019-04-06T18:58:07.881Z,19.63
2019-04-06T19:00:25.246Z,21.23
2019-04-06T19:02:52.855Z,21.27
2019-04-06T19:05:19.455Z,23.57
2019-04-06T19:07:46.180Z,19.37
2019-04-06T19:10:13.054Z,23.30
2019-04-06T19:12:39.554Z,23.50
2019-04-06T19:15:06.960Z,22.63
2019-04-06T19:17:34.738Z,23.73
2019-04-06T19:20:03.053Z,21.97
2019-04-06T19:22:29.841Z,21.30
2019-04-06T19:24:56.664Z,30.67
2019-04-06T19:27:23.769Z,27.77
2019-04-06T19:29:50.397Z,27.33
2019-04-06T19:32:16.998Z,22.27
2019-04-06T19:34:45.382Z,22.93
2019-04-06T19:37:12.447Z,19.33
2019-04-06T19:39:39.078Z,20.77
2019-04-06T19:42:06.422Z,20.90
2019-04-06T19:44:33.064Z,21.10
2019-04-06T19:46:59.742Z,20.13
2019-04-06T19:49:26.361Z,21.77
2019-04-06T19:51:53.250Z,20.03
2019-04-06T19:54:19.875Z,20.60
2019-04-06T19:56:46.421Z,21.20
2019-04-06T19:59:13.779Z,22.70
2019-04-06T20:01:40.484Z,21.30
2019-04-06T20:04:07.036Z,24.43
2019-04-06T20:06:34.064Z,24.37
2019-04-06T20:09:01.146Z,23.53
2019-04-06T20:11:29.899Z,25.53
2019-04-06T20:13:56.516Z,25.63
2019-04-06T20:16:23.216Z,34.47
2019-04-06T20:18:50.891Z,38.43
2019-04-06T20:21:17.493Z,45.47
2019-04-06T20:23:44.543Z,73.53
2019-04-06T20:26:11.563Z,66.80
2019-04-06T20:28:38.157Z,61.90
2019-04-06T20:31:04.842Z,57.43
2019-04-06T20:33:31.566Z,53.80
2019-04-06T20:35:58.723Z,56.03
2019-04-06T20:38:26.332Z,52.87
2019-04-06T20:40:53.831Z,46.87
2019-04-06T20:43:20.784Z,41.47
2019-04-06T20:45:48.139Z,41.00
2019-04-06T20:48:14.977Z,40.17
2019-04-06T20:50:41.680Z,33.90
2019-04-06T20:53:09.184Z,37.50
2019-04-06T20:55:36.113Z,38.87
2019-04-06T20:58:03.097Z,31.37
2019-04-06T21:00:29.843Z,30.03
2019-04-06T21:02:56.524Z,33.37
2019-04-06T21:05:23.417Z,35.23
2019-04-06T21:07:51.842Z,33.23
2019-04-06T21:10:20.034Z,30.00
2019-04-06T21:12:46.694Z,28.87
2019-04-06T21:15:19.556Z,32.30
2019-04-06T21:17:42.708Z,30.20
2019-04-06T21:20:10.710Z,28.80
2019-04-06T21:22:37.750Z,28.93
2019-04-06T21:25:16.110Z,28.10
2019-04-06T21:27:44.079Z,26.37
2019-04-06T21:30:12.333Z,27.60
2019-04-06T21:32:42.901Z,27.70
2019-04-06T21:35:09.743Z,25.63
2019-04-06T21:37:36.838Z,25.63
2019-04-06T21:40:09.184Z,26.03
2019-04-06T21:42:36.504Z,28.60
2019-04-06T21:45:07.699Z,41.73
2019-04-06T21:47:34.417Z,34.40
2019-04-06T21:50:05.802Z,34.47
2019-04-06T21:52:32.765Z,41.67
2019-04-06T21:55:01.316Z,32.20
2019-04-06T21:57:27.946Z,29.20
2019-04-06T22:00:04.163Z,26.43
2019-04-06T22:02:32.961Z,25.43
2019-04-06T22:05:00.047Z,25.20
2019-04-06T22:07:29.067Z,24.10
2019-04-06T22:09:59.708Z,27.77
2019-04-06T22:12:27.235Z,26.20
2019-04-06T22:14:54.227Z,25.23
2019-04-06T22:17:21.650Z,23.57
2019-04-06T22:19:55.098Z,25.27
2019-04-06T22:22:22.296Z,24.23
2019-04-06T22:24:50.055Z,24.07
2019-04-06T22:27:16.743Z,26.13
2019-04-06T22:29:43.414Z,25.80
2019-04-06T22:32:11.429Z,27.50
2019-04-06T22:34:40.268Z,28.70
2019-04-06T22:37:07.366Z,30.80
2019-04-06T22:39:33.938Z,30.63
2019-04-06T22:42:00.535Z,29.90
2019-04-06T22:44:27.064Z,31.53
2019-04-06T22:46:54.189Z,30.77
2019-04-06T22:49:21.419Z,29.63
2019-04-06T22:51:48.313Z,28.67
2019-04-06T22:54:14.858Z,28.90
2019-04-06T22:56:41.856Z,28.33
2019-04-06T22:59:08.617Z,27.27
2019-04-06T23:01:44.864Z,27.97
2019-04-06T23:04:20.388Z,28.57
2019-04-06T23:06:57.652Z,28.63
2019-04-06T23:09:25.832Z,27.43
2019-04-06T23:11:52.811Z,29.17
2019-04-06T23:14:19.436Z,28.23
2019-04-06T23:16:46.014Z,29.87
2019-04-06T23:19:13.088Z,28.70
2019-04-06T23:21:39.729Z,28.23
2019-04-06T23:24:06.754Z,27.17
2019-04-06T23:26:34.445Z,27.97
2019-04-06T23:29:01.776Z,26.80
2019-04-06T23:31:29.101Z,29.57
2019-04-06T23:33:55.725Z,29.07
2019-04-06T23:36:22.712Z,28.97
2019-04-06T23:38:49.808Z,30.00
2019-04-06T23:41:16.357Z,31.10
2019-04-06T23:43:42.938Z,30.53
2019-04-06T23:46:09.835Z,30.23
2019-04-06T23:48:36.533Z,30.57
2019-04-06T23:51:03.138Z,32.60
2019-04-06T23:53:29.736Z,32.70
2019-04-06T23:55:56.314Z,29.60
2019-04-06T23:58:23.504Z,31.33
